createdAt,value
2023-02-04T00:00:14.665Z,1.02
2023-02-04T00:03:01.525Z,1.02
2023-02-04T00:05:28.472Z,1.03
2023-02-04T00:07:55.390Z,1.03
2023-02-04T00:10:22.137Z,1.04
2023-02-04T00:12:48.902Z,1.05
2023-02-04T00:15:15.627Z,1.05
2023-02-04T00:17:42.324Z,1.06
2023-02-04T00:20:09.339Z,1.06
2023-02-04T00:22:36.218Z,1.06
2023-02-04T00:25:03.092Z,1.06
2023-02-04T00:27:29.805Z,1.06
2023-02-04T00:29:57.181Z,1.05
2023-02-04T00:32:24.467Z,1.00
2023-02-04T00:34:53.330Z,0.95
2023-02-04T00:37:20.506Z,0.88
2023-02-04T00:39:47.567Z,0.82
2023-02-04T00:42:14.662Z,0.77
2023-02-04T00:44:45.248Z,0.74
2023-02-04T00:47:12.202Z,0.70
2023-02-04T00:49:39.184Z,0.65
2023-02-04T00:52:06.110Z,0.62
2023-02-04T00:54:33.145Z,0.59
2023-02-04T00:57:01.560Z,0.58
2023-02-04T00:59:28.616Z,0.56
2023-02-04T01:01:55.773Z,0.54
2023-02-04T01:04:22.955Z,0.53
2023-02-04T01:06:51.565Z,0.51
2023-02-04T01:09:18.832Z,0.48
2023-02-04T01:11:46.279Z,0.43
2023-02-04T01:14:13.363Z,0.38
2023-02-04T01:16:40.613Z,0.32
2023-02-04T01:19:11.019Z,0.29
2023-02-04T01:21:39.439Z,0.23
2023-02-04T01:24:13.857Z,0.19
2023-02-04T01:27:07.729Z,0.20
2023-02-04T01:29:51.814Z,0.22
2023-02-04T01:32:39.677Z,0.21
2023-02-04T01:35:14.285Z,0.18
2023-02-04T01:37:48.684Z,0.12
2023-02-04T01:40:32.664Z,0.08
2023-02-04T01:43:03.917Z,0.03
2023-02-04T01:45:34.159Z,-0.02
2023-02-04T01:48:06.202Z,-0.07
2023-02-04T01:50:35.395Z,-0.11
2023-02-04T01:53:09.924Z,-0.15
2023-02-04T01:55:48.743Z,-0.16
2023-02-04T01:58:33.758Z,-0.17
2023-02-04T02:01:36.614Z,-0.19
2023-02-04T02:05:22.812Z,-0.22
2023-02-04T02:08:37.664Z,-0.23
2023-02-04T02:11:32.160Z,-0.24
2023-02-04T02:14:00.511Z,-0.26
2023-02-04T02:16:29.414Z,-0.26
2023-02-04T02:18:58.241Z,-0.25
2023-02-04T02:21:45.040Z,-0.25
2023-02-04T02:24:34.236Z,-0.26
2023-02-04T02:27:05.408Z,-0.26
2023-02-04T02:29:32.859Z,-0.25
2023-02-04T02:32:00.588Z,-0.22
2023-02-04T02:34:30.051Z,-0.18
2023-02-04T02:37:01.355Z,-0.14
2023-02-04T02:39:28.978Z,-0.11
2023-02-04T02:41:57.090Z,-0.09
2023-02-04T02:44:26.438Z,-0.06
2023-02-04T02:47:02.464Z,-0.04
2023-02-04T02:49:36.502Z,-0.02
2023-02-04T02:52:17.399Z,-0.01
2023-02-04T02:54:53.385Z,0.00
2023-02-04T02:57:30.765Z,-0.00
2023-02-04T03:00:10.696Z,0.02
2023-02-04T03:02:58.504Z,0.02
2023-02-04T03:05:42.829Z,0.02
2023-02-04T03:08:19.422Z,0.03
2023-02-04T03:11:18.731Z,0.04
2023-02-04T03:14:07.370Z,0.05
2023-02-04T03:16:55.197Z,0.07
2023-02-04T03:19:45.262Z,0.09
2023-02-04T03:32:05.466Z,0.16
2023-02-04T03:34:44.165Z,0.19
2023-02-04T03:37:30.082Z,0.21
2023-02-04T03:40:48.385Z,0.22
2023-02-04T03:43:38.615Z,0.22
2023-02-04T03:46:59.576Z,0.22
2023-02-04T03:49:42.070Z,0.21
2023-02-04T03:52:25.625Z,0.21
2023-02-04T03:55:05.395Z,0.21
2023-02-04T03:57:36.986Z,0.21
2023-02-04T04:01:21.874Z,0.21
2023-02-04T04:16:27.861Z,0.19
2023-02-04T04:20:28.074Z,0.20
2023-02-04T04:26:50.685Z,0.23
2023-02-04T04:30:01.360Z,0.23
2023-02-04T04:33:32.973Z,0.23
2023-02-04T04:36:51.223Z,0.23
2023-02-04T04:39:25.482Z,0.23
2023-02-04T04:41:58.395Z,0.22
2023-02-04T04:44:30.183Z,0.22
2023-02-04T04:47:00.566Z,0.22
2023-02-04T04:49:30.938Z,0.21
2023-02-04T04:52:16.437Z,0.20
2023-02-04T04:55:55.214Z,0.19
2023-02-04T04:59:02.594Z,0.17
2023-02-04T05:02:29.726Z,0.16
2023-02-04T05:05:25.680Z,0.15
2023-02-04T05:16:25.829Z,0.16
2023-02-04T05:23:09.415Z,0.16
2023-02-04T05:26:30.233Z,0.18
2023-02-04T05:29:23.698Z,0.19
2023-02-04T05:32:36.532Z,0.21
2023-02-04T05:40:36.336Z,0.24
2023-02-04T05:43:03.431Z,0.26
2023-02-04T05:58:52.974Z,0.36
2023-02-04T06:01:44.049Z,0.41
2023-02-04T06:04:24.865Z,0.47
2023-02-04T06:06:52.063Z,0.52
2023-02-04T06:09:31.134Z,0.55
2023-02-04T06:12:14.051Z,0.58
2023-02-04T06:15:01.843Z,0.62
2023-02-04T06:17:56.227Z,0.66
2023-02-04T06:20:53.726Z,0.68
2023-02-04T06:23:40.328Z,0.70
2023-02-04T06:26:22.234Z,0.72
2023-02-04T06:29:17.427Z,0.75
2023-02-04T06:35:41.469Z,0.85
2023-02-04T06:38:48.380Z,0.88
2023-02-04T06:42:31.984Z,0.90
2023-02-04T06:45:23.870Z,0.92
2023-02-04T06:52:50.779Z,0.98
2023-02-04T06:55:18.223Z,1.02
2023-02-04T06:57:51.413Z,1.05
2023-02-04T07:00:19.922Z,1.08
2023-02-04T07:02:46.998Z,1.11
2023-02-04T07:05:16.568Z,1.14
2023-02-04T07:07:43.387Z,1.16
2023-02-04T07:10:10.129Z,1.19
2023-02-04T07:12:39.111Z,1.21
2023-02-04T07:15:06.031Z,1.24
2023-02-04T07:17:32.819Z,1.26
2023-02-04T07:19:59.861Z,1.29
2023-02-04T07:22:26.415Z,1.31
2023-02-04T07:24:53.036Z,1.32
2023-02-04T07:27:19.651Z,1.33
2023-02-04T07:29:46.251Z,1.34
2023-02-04T07:32:13.088Z,1.34
2023-02-04T07:34:47.691Z,1.35
2023-02-04T07:37:40.064Z,1.35
2023-02-04T07:40:32.333Z,1.35
2023-02-04T07:48:00.617Z,1.32
2023-02-04T07:50:32.875Z,1.32
2023-02-04T07:53:23.604Z,1.34
2023-02-04T07:59:52.978Z,1.36
2023-02-04T08:02:29.664Z,1.38
2023-02-04T08:19:47.920Z,1.40
2023-02-04T08:19:52.799Z,1.37
2023-02-04T08:22:39.854Z,1.41
2023-02-04T08:25:21.058Z,1.41
2023-02-04T08:28:14.341Z,1.42
2023-02-04T08:40:43.715Z,1.48
2023-02-04T08:43:13.426Z,1.52
2023-02-04T08:45:43.802Z,1.48
2023-02-04T08:54:13.972Z,1.35
2023-02-04T08:57:52.848Z,1.38
2023-02-04T09:00:33.964Z,1.48
2023-02-04T09:03:30.515Z,1.52
2023-02-04T09:10:52.309Z,1.75
2023-02-04T09:13:33.038Z,1.84
2023-02-04T09:16:29.383Z,1.90
2023-02-04T09:19:05.039Z,1.95
2023-02-04T09:21:43.722Z,1.99
2023-02-04T09:24:24.991Z,1.97
2023-02-04T09:26:52.157Z,1.96
2023-02-04T09:29:22.927Z,2.01
2023-02-04T09:31:51.749Z,2.02
2023-02-04T09:34:25.403Z,2.04
2023-02-04T09:36:52.549Z,2.04
2023-02-04T09:39:19.841Z,2.04
2023-02-04T09:41:47.201Z,2.07
2023-02-04T09:44:20.772Z,2.08
2023-02-04T09:46:51.823Z,2.09
2023-02-04T09:49:18.910Z,2.06
2023-02-04T09:51:56.158Z,2.06
2023-02-04T09:54:28.504Z,2.06
2023-02-04T09:56:58.954Z,1.98
2023-02-04T09:59:28.292Z,1.88
2023-02-04T10:02:00.032Z,1.82
2023-02-04T10:05:07.024Z,1.76
2023-02-04T10:08:52.068Z,1.65
2023-02-04T10:12:21.763Z,1.48
2023-02-04T10:15:27.509Z,1.32
2023-02-04T10:19:51.086Z,1.18
2023-02-04T10:26:25.410Z,0.81
2023-02-04T10:30:57.706Z,0.69
2023-02-04T10:33:39.635Z,0.61
2023-02-04T10:36:16.273Z,0.72
2023-02-04T10:39:01.914Z,0.83
2023-02-04T10:41:35.175Z,0.91
2023-02-04T10:47:54.773Z,0.94
2023-02-04T10:47:55.848Z,0.94
2023-02-04T10:50:49.071Z,0.89
2023-02-04T10:54:02.287Z,0.84
2023-02-04T10:56:40.435Z,0.77
2023-02-04T10:59:37.625Z,0.68
2023-02-04T11:02:50.275Z,0.65
2023-02-04T11:05:43.444Z,0.63
2023-02-04T11:09:08.871Z,0.60
2023-02-04T11:13:20.463Z,0.58
2023-02-04T11:15:39.513Z,0.51
2023-02-04T11:25:52.098Z,0.26
2023-02-04T11:28:56.867Z,0.22
2023-02-04T11:35:28.502Z,0.09
2023-02-04T11:38:25.228Z,0.04
2023-02-04T11:41:30.265Z,0.02
2023-02-04T11:44:14.070Z,0.03
2023-02-04T11:51:06.422Z,0.05
2023-02-04T11:53:33.880Z,0.07
2023-02-04T11:56:23.658Z,0.07
2023-02-04T12:02:28.124Z,0.12
2023-02-04T12:05:17.696Z,0.18
2023-02-04T12:07:46.249Z,0.22
2023-02-04T12:10:33.915Z,0.27
2023-02-04T12:13:41.086Z,0.32
2023-02-04T12:16:07.446Z,0.37
2023-02-04T12:18:58.914Z,0.42
2023-02-04T12:22:00.255Z,0.45
2023-02-04T12:24:35.547Z,0.48
2023-02-04T12:27:11.667Z,0.50
2023-02-04T12:29:58.298Z,0.52
2023-02-04T12:33:14.984Z,0.54
2023-02-04T12:36:44.769Z,0.55
2023-02-04T12:39:36.047Z,0.56
2023-02-04T12:42:07.282Z,0.56
2023-02-04T12:44:50.404Z,0.55
2023-02-04T12:47:36.478Z,0.53
2023-02-04T12:50:30.046Z,0.52
2023-02-04T12:52:59.144Z,0.50
2023-02-04T12:55:36.010Z,0.52
2023-02-04T12:58:23.125Z,0.51
2023-02-04T13:01:28.223Z,0.54
2023-02-04T13:04:07.082Z,0.54
2023-02-04T13:06:36.504Z,0.57
2023-02-04T13:11:53.407Z,0.59
2023-02-04T13:17:54.417Z,0.59
2023-02-04T13:20:51.251Z,0.60
2023-02-04T13:23:29.112Z,0.60
2023-02-04T13:29:55.519Z,0.59
2023-02-04T13:35:12.460Z,0.60
2023-02-04T13:37:52.285Z,0.57
2023-02-04T13:40:42.133Z,0.56
2023-02-04T13:43:41.011Z,0.56
2023-02-04T13:46:11.702Z,0.56
2023-02-04T13:48:46.629Z,0.57
2023-02-04T13:54:13.158Z,0.56
2023-02-04T13:56:44.419Z,0.53
2023-02-04T13:59:27.531Z,0.50
2023-02-04T14:02:07.713Z,0.48
2023-02-04T14:08:09.458Z,0.41
2023-02-04T14:11:00.698Z,0.39
2023-02-04T14:13:56.712Z,0.38
2023-02-04T14:16:28.643Z,0.36
2023-02-04T14:19:26.440Z,0.33
2023-02-04T14:25:09.821Z,0.28
2023-02-04T14:28:36.007Z,0.24
2023-02-04T14:30:45.598Z,0.20
2023-02-04T14:33:37.495Z,0.14
2023-02-04T14:36:29.754Z,0.11
2023-02-04T14:38:58.006Z,0.08
2023-02-04T14:41:26.304Z,0.05
2023-02-04T14:44:07.578Z,0.06
2023-02-04T14:46:44.853Z,0.04
2023-02-04T14:49:37.018Z,0.04
2023-02-04T14:52:26.352Z,0.01
2023-02-04T14:54:54.818Z,-0.03
2023-02-04T14:57:35.627Z,-0.09
2023-02-04T15:00:09.131Z,-0.14
2023-02-04T15:02:43.973Z,-0.19
2023-02-04T15:05:42.898Z,-0.24
2023-02-04T15:08:21.417Z,-0.33
2023-02-04T15:11:03.910Z,-0.39
2023-02-04T15:13:49.951Z,-0.45
2023-02-04T15:16:31.972Z,-0.52
2023-02-04T15:19:04.345Z,-0.53
2023-02-04T15:21:31.750Z,-0.61
2023-02-04T15:24:06.886Z,-0.67
2023-02-04T15:26:36.171Z,-0.69
2023-02-04T15:29:05.345Z,-0.74
2023-02-04T15:31:44.789Z,-0.78
2023-02-04T15:34:11.874Z,-0.83
2023-02-04T15:36:41.408Z,-0.88
2023-02-04T15:39:08.207Z,-0.93
2023-02-04T15:41:36.463Z,-0.99
2023-02-04T15:44:06.331Z,-1.03
2023-02-04T15:46:34.459Z,-1.06
2023-02-04T15:49:02.110Z,-1.09
2023-02-04T15:51:29.129Z,-1.12
2023-02-04T15:53:55.981Z,-1.17
2023-02-04T15:56:23.156Z,-1.20
2023-02-04T15:58:49.768Z,-1.21
2023-02-04T16:01:16.491Z,-1.23
2023-02-04T16:03:45.411Z,-1.27
2023-02-04T16:06:12.466Z,-1.29
2023-02-04T16:08:42.275Z,-1.30
2023-02-04T16:11:10.200Z,-1.32
2023-02-04T16:13:40.262Z,-1.35
2023-02-04T16:16:09.743Z,-1.38
2023-02-04T16:18:39.505Z,-1.39
2023-02-04T16:21:20.357Z,-1.41
2023-02-04T16:23:51.551Z,-1.40
2023-02-04T16:26:21.862Z,-1.42
2023-02-04T16:28:58.094Z,-1.43
2023-02-04T16:31:43.774Z,-1.45
2023-02-04T16:34:30.030Z,-1.46
2023-02-04T16:37:08.801Z,-1.52
2023-02-04T16:39:39.123Z,-1.52
2023-02-04T16:42:11.156Z,-1.51
2023-02-04T16:44:51.268Z,-1.53
2023-02-04T16:48:00.675Z,-1.54
2023-02-04T16:50:56.262Z,-1.54
2023-02-04T16:53:26.646Z,-1.56
2023-02-04T16:56:41.909Z,-1.60
2023-02-04T17:03:10.934Z,-1.65
2023-02-04T17:06:41.316Z,-1.65
2023-02-04T17:09:25.580Z,-1.68
2023-02-04T17:12:25.772Z,-1.72
2023-02-04T17:14:54.554Z,-1.73
2023-02-04T17:17:22.515Z,-1.80
2023-02-04T17:19:56.377Z,-1.85
2023-02-04T17:23:22.517Z,-1.86
2023-02-04T17:28:43.998Z,-1.90
2023-02-04T17:31:46.850Z,-1.95
2023-02-04T17:34:47.495Z,-1.98
2023-02-04T17:37:20.356Z,-2.02
2023-02-04T17:40:12.391Z,-2.05
2023-02-04T17:45:38.305Z,-2.10
2023-02-04T17:48:19.536Z,-2.12
2023-02-04T17:50:53.458Z,-2.16
2023-02-04T17:53:30.855Z,-2.17
2023-02-04T17:56:32.841Z,-2.18
2023-02-04T17:59:18.789Z,-2.21
2023-02-04T18:02:15.212Z,-2.24
2023-02-04T18:04:57.698Z,-2.24
2023-02-04T18:08:02.626Z,-2.29
2023-02-04T18:10:38.851Z,-2.31
2023-02-04T18:13:17.733Z,-2.30
2023-02-04T18:15:56.078Z,-2.30
2023-02-04T18:18:32.502Z,-2.33
2023-02-04T18:21:42.704Z,-2.37
2023-02-04T18:24:35.688Z,-2.37
2023-02-04T18:27:32.350Z,-2.39
2023-02-04T18:30:02.561Z,-2.40
2023-02-04T18:33:08.758Z,-2.42
2023-02-04T18:35:49.884Z,-2.45
2023-02-04T18:38:29.306Z,-2.46
2023-02-04T18:44:26.056Z,-2.51
2023-02-04T18:47:29.972Z,-2.54
2023-02-04T18:50:48.553Z,-2.56
2023-02-04T18:53:19.786Z,-2.56
2023-02-04T18:56:21.412Z,-2.60
2023-02-04T18:58:52.883Z,-2.61
2023-02-04T19:01:38.427Z,-2.64
2023-02-04T19:04:25.987Z,-2.68
2023-02-04T19:07:13.333Z,-2.73
2023-02-04T19:10:09.048Z,-2.76
2023-02-04T19:12:42.868Z,-2.77
2023-02-04T19:15:41.585Z,-2.82
2023-02-04T19:18:45.746Z,-2.84
2023-02-04T19:21:29.829Z,-2.79
2023-02-04T19:24:42.824Z,-2.81
2023-02-04T19:27:35.747Z,-2.83
2023-02-04T19:31:01.114Z,-2.85
2023-02-04T19:34:08.147Z,-2.88
2023-02-04T19:39:59.505Z,-2.89
2023-02-04T19:42:54.033Z,-2.92
2023-02-04T19:45:35.716Z,-2.93
2023-02-04T19:48:34.684Z,-2.92
2023-02-04T19:51:31.813Z,-2.93
2023-02-04T19:54:37.100Z,-2.94
2023-02-04T19:57:36.422Z,-2.98
2023-02-04T20:09:41.966Z,-3.00
2023-02-04T20:17:55.938Z,-3.09
2023-02-04T20:19:05.855Z,-3.11
2023-02-04T20:23:13.408Z,-3.13
2023-02-04T20:25:49.668Z,-3.17
2023-02-04T20:32:34.102Z,-3.28
2023-02-04T20:35:12.617Z,-3.34
2023-02-04T20:39:15.128Z,-3.40
2023-02-04T20:44:14.457Z,-3.45
2023-02-04T20:48:42.669Z,-3.49
2023-02-04T20:59:28.946Z,-3.58
2023-02-04T21:02:40.886Z,-3.59
2023-02-04T21:05:50.361Z,-3.63
2023-02-04T21:09:47.741Z,-3.66
2023-02-04T21:12:15.404Z,-3.72
2023-02-04T21:15:43.626Z,-3.75
2023-02-04T21:22:56.276Z,-3.82
2023-02-04T21:29:35.896Z,-3.88
2023-02-04T21:32:26.716Z,-3.89
2023-02-04T21:32:44.542Z,-3.87
2023-02-04T21:34:53.443Z,-3.90
2023-02-04T21:37:47.541Z,-3.91
2023-02-04T21:40:23.675Z,-3.92
2023-02-04T21:42:51.705Z,-3.93
2023-02-04T21:48:42.629Z,-3.93
2023-02-04T21:51:58.390Z,-3.97
2023-02-04T21:54:46.077Z,-4.00
2023-02-04T22:01:07.876Z,-4.04
2023-02-04T22:01:30.472Z,-4.06
2023-02-04T22:04:07.911Z,-4.09
2023-02-04T22:07:00.268Z,-4.09
2023-02-04T22:09:36.506Z,-4.10
2023-02-04T22:12:21.237Z,-4.14
2023-02-04T22:14:58.013Z,-4.16
2023-02-04T22:17:31.940Z,-4.17
2023-02-04T22:20:00.149Z,-4.21
2023-02-04T22:22:32.950Z,-4.21
2023-02-04T22:25:40.577Z,-4.23
2023-02-04T22:28:28.661Z,-4.24
2023-02-04T22:30:55.400Z,-4.28
2023-02-04T22:33:30.947Z,-4.32
2023-02-04T22:36:02.267Z,-4.35
2023-02-04T22:38:33.438Z,-4.36
2023-02-04T22:41:11.426Z,-4.38
2023-02-04T22:43:39.535Z,-4.37
2023-02-04T22:46:13.540Z,-4.36
2023-02-04T22:49:00.484Z,-4.35
2023-02-04T22:51:28.558Z,-4.35
2023-02-04T22:54:04.369Z,-4.34
2023-02-04T22:56:44.465Z,-4.35
2023-02-04T22:59:13.779Z,-4.40
2023-02-04T23:01:40.816Z,-4.40
2023-02-04T23:04:07.711Z,-4.43
2023-02-04T23:06:34.566Z,-4.46
2023-02-04T23:09:01.546Z,-4.49
2023-02-04T23:11:28.398Z,-4.55
2023-02-04T23:13:55.238Z,-4.61
2023-02-04T23:16:27.012Z,-4.65
2023-02-04T23:19:19.345Z,-4.69
2023-02-04T23:25:37.857Z,-4.71
2023-02-04T23:28:09.472Z,-4.72
2023-02-04T23:31:05.009Z,-4.74
2023-02-04T23:34:08.168Z,-4.80
2023-02-04T23:36:38.275Z,-4.81
2023-02-04T23:39:07.743Z,-4.83
2023-02-04T23:41:36.501Z,-4.84
2023-02-04T23:45:24.128Z,-4.84
2023-02-04T23:48:02.212Z,-4.87
2023-02-04T23:50:40.564Z,-4.91
2023-02-04T23:53:27.581Z,-4.91
2023-02-04T23:56:18.189Z,-4.90
2023-02-04T23:58:53.717Z,-4.93
